Flight Track Log - Related Links

Times and Time Zones

All times are in EDT time to prevent confusion due to time zone crossing. See the DAL1981 flight status page for this flight to view local times or setup timezone preferences in your user account.

Time Position Orientation Groundspeed Altitude Reporting Facility
EDT Latitude Longitude Course Direction KTS MPH feet Rate Location/Type
Thu 03:54:13 PM 38.6500 -121.5667 76° East 163 188 1,700  Level Northern Cal TRACON
Thu 03:55:13 PM 38.6167 -121.5000 123° Southeast 252 290 3,000 1,950 Climbing Northern Cal TRACON
Thu 03:56:00 PM 38.5083 -121.2086 67° East  Level FlightAware Approximate
Thu 03:56:13 PM 38.6167 -121.4000 90° East 278 320 5,600  Level Northern Cal TRACON
Thu 03:57:00 PM 38.5465 -121.0341 76° East  Level FlightAware Approximate
Thu 03:58:00 PM 38.5768 -120.8567 78° East  Level FlightAware Approximate
Thu 03:58:16 PM 38.6378 -121.1981 82° East 301 346 10,500  Level Oakland Center
Thu 03:59:00 PM 38.6075 -120.6794 76° East  Level FlightAware Approximate
Thu 03:59:18 PM 38.6497 -121.0706 83° East 367 422 11,400  Level Oakland Center
Thu 04:00:19 PM 38.6606 -120.9269 84° East 395 455 13,000 1,659 Climbing Oakland Center
Thu 04:01:21 PM 38.6728 -120.7767 84° East 416 479 14,800 1,805 Climbing Oakland Center
Thu 04:02:22 PM 38.6867 -120.5894 85° East 434 499 16,700 1,561 Climbing Oakland Center
Thu 04:03:24 PM 38.6997 -120.4244 84° East 457 526 18,000 1,268 Climbing Oakland Center
Thu 04:04:25 PM 38.7356 -120.2636 74° East 485 558 19,300 1,220 Climbing Oakland Center
Thu 04:05:27 PM 38.8367 -120.1444 43° Northeast 492 566 20,500 1,088 Climbing Oakland Center
Thu 04:07:27 PM 39.0394 -119.9008 43° Northeast 512 589 22,600 1,088 Climbing Salt Lake Center
Thu 04:08:29 PM 39.1467 -119.7731 43° Northeast 522 601 23,800 919 Climbing Salt Lake Center
Thu 04:09:31 PM 39.2572 -119.6419 43° Northeast 534 615 24,500 823 Climbing Salt Lake Center
Thu 04:10:33 PM 39.3919 -119.4786 43° Northeast 547 629 25,500 912 Climbing Salt Lake Center
Thu 04:11:36 PM 39.5081 -119.3392 43° Northeast 559 643 26,400 960 Climbing Oakland Center
Thu 04:12:38 PM 39.6214 -119.1997 43° Northeast 557 641 27,500 976 Climbing Oakland Center
Thu 04:13:39 PM 39.7375 -119.0597 43° Northeast 561 646 28,400 927 Climbing Oakland Center
Thu 04:14:41 PM 39.8269 -118.8908 55° Northeast 563 648 29,400 976 Climbing Oakland Center
Thu 04:15:42 PM 39.9006 -118.7106 62° Northeast 559 643 30,400 976 Climbing Oakland Center
Thu 04:16:44 PM 39.9717 -118.5306 63° Northeast 557 641 31,400 976 Climbing Oakland Center
Thu 04:17:45 PM 40.0433 -118.3550 62° Northeast 550 633 32,400 780 Climbing Oakland Center
Thu 04:18:47 PM 40.1147 -118.1753 63° Northeast 552 635 33,000 293 Climbing Oakland Center
Thu 04:19:48 PM 40.1856 -117.9981 62° Northeast 551 634 33,000  Level Oakland Center
Thu 04:20:49 PM 40.2600 -117.8003 64° Northeast 552 635 33,000 94 Level Oakland Center
Thu 04:21:56 PM 40.3208 -117.5944 69° East 543 625 33,200 512 Climbing Salt Lake Center
Thu 04:22:58 PM 40.3742 -117.4178 68° East 544 626 34,100 919 Climbing Salt Lake Center
Thu 04:24:00 PM 40.4347 -117.2144 69° East 536 617 35,100 774 Climbing Salt Lake Center
Thu 04:25:02 PM 40.4872 -117.0394 68° East 532 612 35,700 581 Climbing Salt Lake Center
Thu 04:26:04 PM 40.5392 -116.8592 69° East 535 616 36,300 629 Climbing Salt Lake Center
Thu 04:27:06 PM 40.5994 -116.6536 69° East 532 612 37,000 339 Climbing Salt Lake Center
Thu 04:28:08 PM 40.6494 -116.4800 69° East 528 608 37,000  Level Salt Lake Center
Thu 04:29:10 PM 40.7075 -116.2742 70° East 534 615 37,000  Level Salt Lake Center
Thu 04:30:12 PM 40.7581 -116.0961 69° East 540 621 37,000  Level Salt Lake Center
Thu 04:31:14 PM 40.8183 -115.8881 69° East 542 624 37,000  Level Salt Lake Center
Thu 04:32:16 PM 40.8656 -115.7089 71° East 540 621 37,000  Level Salt Lake Center
Thu 04:33:18 PM 40.9258 -115.5025 69° East 539 620 37,000  Level Salt Lake Center
Thu 04:34:20 PM 40.9744 -115.3264 70° East 535 616 37,000  Level Salt Lake Center
Thu 04:35:22 PM 41.0272 -115.1183 71° East 535 616 37,000  Level Salt Lake Center
Thu 04:36:24 PM 41.0792 -114.9414 69° East 537 618 37,000  Level Salt Lake Center
Thu 04:37:26 PM 41.1267 -114.7611 71° East 538 619 37,000  Level Salt Lake Center
Thu 04:38:28 PM 41.1761 -114.5728 71° East 541 623 37,000  Level Salt Lake Center
Thu 04:39:30 PM 41.2364 -114.3469 70° East 542 624 37,000  Level Salt Lake Center
Thu 04:40:33 PM 41.2867 -114.1575 70° East 544 626 37,000  Level Salt Lake Center
Thu 04:41:35 PM 41.3367 -113.9683 71° East 543 625 37,000  Level Salt Lake Center
Thu 04:42:37 PM 41.3853 -113.7783 71° East 543 625 37,000  Level Salt Lake Center
Thu 04:43:39 PM 41.4339 -113.5894 71° East 540 621 37,000  Level Salt Lake Center
Thu 04:44:41 PM 41.4817 -113.4011 71° East 538 619 37,000 -48 Level Salt Lake Center
Thu 04:45:43 PM 41.5378 -113.1744 72° East 537 618 36,900  Descending Salt Lake Center
Thu 04:46:45 PM 41.5861 -112.9825 71° East 543 625 37,000 48 Climbing Salt Lake Center
Thu 04:47:47 PM 41.6347 -112.7911 71° East 544 626 37,000  Level Salt Lake Center
Thu 04:48:49 PM 41.6814 -112.5986 72° East 543 625 37,000  Level Salt Lake Center
Thu 04:49:51 PM 41.7289 -112.4086 71° East 539 620 37,000  Level Salt Lake Center
Thu 04:50:53 PM 41.7756 -112.2169 72° East 539 620 37,000  Level Salt Lake Center
Thu 04:51:55 PM 41.8200 -112.0272 72° East 535 616 37,000 -48 Level Salt Lake Center
Thu 04:52:57 PM 41.8739 -111.8014 72° East 530 610 36,900  Descending Salt Lake Center
Thu 04:53:59 PM 41.9192 -111.6117 72° East 532 612 37,000 48 Climbing Salt Lake Center
Thu 04:55:01 PM 41.9644 -111.4222 72° East 532 612 37,000  Level Salt Lake Center
Thu 04:57:00 PM 41.9983 -111.2559 75° East  Level FlightAware Approximate
Thu 04:59:10 PM 42.1719 -110.6578 73° East 537 618 37,000  Level Salt Lake Center
Thu 05:00:12 PM 42.2442 -110.4547 64° Northeast 537 618 37,000  Level Salt Lake Center
Thu 05:01:14 PM 42.3053 -110.2783 65° Northeast 539 620 37,000  Level Salt Lake Center
Thu 05:02:16 PM 42.3703 -110.0706 67° East 539 620 37,000  Level Salt Lake Center
Thu 05:03:18 PM 42.4253 -109.8903 67° East 541 623 37,000  Level Salt Lake Center
Thu 05:04:00 PM 42.1221 -110.6695 73° East  Level FlightAware Approximate
Thu 05:04:20 PM 42.4886 -109.6789 68° East 542 624 37,000  Level Salt Lake Center
Thu 05:05:22 PM 42.5403 -109.4964 69° East 541 623 37,000  Level Salt Lake Center
Thu 05:06:24 PM 42.6056 -109.2853 67° East 541 623 37,000  Level Salt Lake Center
Thu 05:07:26 PM 42.6597 -109.1017 68° East 545 627 37,000 48 Level Salt Lake Center
Thu 05:08:28 PM 42.7125 -108.9208 68° East 540 621 37,100  Climbing Salt Lake Center
Thu 05:09:30 PM 42.7742 -108.7081 68° East 541 623 37,000 -48 Descending Salt Lake Center
Thu 05:10:32 PM 42.8261 -108.5281 68° East 537 618 37,000  Level Salt Lake Center
Thu 05:11:34 PM 42.8869 -108.3142 69° East 540 621 37,000  Level Salt Lake Center
Thu 05:12:36 PM 42.9525 -108.1417 63° Northeast 539 620 37,000  Level Salt Lake Center
Thu 05:13:38 PM 43.0325 -107.9347 62° Northeast 537 618 37,000  Level Salt Lake Center
Thu 05:14:40 PM 43.1017 -107.7536 62° Northeast 540 621 37,000  Level Salt Lake Center
Thu 05:15:42 PM 43.1578 -107.5658 68° East 535 616 37,000  Level Salt Lake Center
Thu 05:16:45 PM 43.1897 -107.3636 78° East 542 624 37,000  Level Salt Lake Center
Thu 05:17:47 PM 43.2217 -107.1642 78° East 539 620 37,000  Level Salt Lake Center
Thu 05:18:49 PM 43.2539 -106.9617 78° East 545 627 37,000  Level Salt Lake Center
Thu 05:19:20 PM 43.2722 -106.8478 77° East 543 625 37,000  Level Denver Center
Thu 05:20:22 PM 43.3078 -106.6214 78° East 544 626 37,000  Level Denver Center
Thu 05:21:24 PM 43.3372 -106.4256 78° East 547 629 37,000  Level Denver Center
Thu 05:22:26 PM 43.3719 -106.1986 78° East 544 626 37,000  Level Denver Center
Thu 05:23:28 PM 43.4014 -106.0036 78° East 544 626 37,000  Level Denver Center
Thu 05:24:30 PM 43.4353 -105.7758 78° East 544 626 37,000  Level Denver Center
Thu 05:25:32 PM 43.4639 -105.5794 79° East 545 627 37,000  Level Denver Center
Thu 05:26:34 PM 43.4958 -105.3517 79° East 543 625 37,000  Level Denver Center
Thu 05:27:36 PM 43.5244 -105.1567 78° East 542 624 37,000  Level Denver Center
Thu 05:28:38 PM 43.5547 -104.9278 80° East 542 624 37,000  Level Denver Center
Thu 05:29:40 PM 43.5825 -104.7319 79° East 543 625 37,000  Level Denver Center
Thu 05:30:42 PM 43.6139 -104.5353 78° East 544 626 37,000  Level Denver Center
Thu 05:31:44 PM 43.6572 -104.3139 75° East 538 619 37,000  Level Denver Center
Thu 05:32:46 PM 43.6947 -104.1233 75° East 536 617 37,000  Level Denver Center
Thu 05:33:48 PM 43.7383 -103.8983 75° East 542 624 37,000  Level Denver Center
Thu 05:34:50 PM 43.7800 -103.7072 73° East 542 624 37,000  Level Denver Center
Thu 05:35:53 PM 43.8317 -103.4872 72° East 539 620 37,000  Level Denver Center
Thu 05:36:55 PM 43.8786 -103.3017 71° East 535 616 37,000  Level Denver Center
Thu 05:37:57 PM 43.9289 -103.0781 73° East 541 623 37,000  Level Denver Center
Thu 05:38:59 PM 43.9731 -102.8897 72° East 539 620 37,000  Level Denver Center
Thu 05:40:01 PM 44.0153 -102.7056 72° East 538 619 37,000  Level Denver Center
Thu 05:41:03 PM 44.0747 -102.4733 70° East 534 615 37,000  Level Denver Center
Thu 05:42:05 PM 44.1192 -102.2750 73° East 536 617 37,000  Level Denver Center
Thu 05:43:07 PM 44.1672 -102.0794 71° East 535 616 37,000  Level Denver Center
Thu 05:44:09 PM 44.2161 -101.8831 71° East 537 618 37,000  Level Denver Center
Thu 05:45:11 PM 44.2672 -101.6900 70° East 534 615 37,000  Level Denver Center
Thu 05:46:13 PM 44.3133 -101.4933 72° East 533 613 37,000  Level Denver Center
Thu 05:47:15 PM 44.3678 -101.2581 72° East 532 612 37,000  Level Denver Center
Thu 05:48:17 PM 44.4117 -101.0608 73° East 532 612 37,000  Level Denver Center
Thu 05:49:19 PM 44.4406 -100.8586 79° East 530 610 37,000  Level Denver Center
Thu 05:50:27 PM 44.4506 -100.6092 87° East 543 625 37,000  Level Minneapolis Center
Thu 05:51:29 PM 44.4567 -100.4008 88° East 541 623 37,000  Level Minneapolis Center
Thu 05:52:31 PM 44.4614 -100.1931 88° East 539 620 37,000  Level Minneapolis Center
Thu 05:53:33 PM 44.4661 -99.9856 88° East 539 620 37,000  Level Minneapolis Center
Thu 05:54:36 PM 44.4706 -99.7775 88° East 540 621 37,000  Level Minneapolis Center
Thu 05:55:38 PM 44.4756 -99.5283 88° East 539 620 37,000  Level Minneapolis Center
Thu 05:56:40 PM 44.4794 -99.3211 88° East 537 618 37,000  Level Minneapolis Center
Thu 05:57:42 PM 44.4822 -99.1142 89° East 535 616 37,000  Level Minneapolis Center
Thu 05:59:46 PM 44.4875 -98.6964 89° East 539 620 37,000  Level Minneapolis Center
Thu 06:00:48 PM 44.4897 -98.4456 89° East 539 620 37,000  Level Minneapolis Center
Thu 06:01:53 PM 44.4911 -98.2578 89° East 539 620 37,000  Level Minneapolis Center
Thu 06:02:55 PM 44.4928 -98.0056 89° East 540 621 37,000  Level Minneapolis Center
Thu 06:03:57 PM 44.5042 -97.7986 86° East 536 617 37,000  Level Minneapolis Center
Thu 06:04:59 PM 44.5186 -97.5911 84° East 536 617 37,000  Level Minneapolis Center
Thu 06:06:01 PM 44.5328 -97.3825 84° East 538 619 37,000  Level Minneapolis Center
Thu 06:07:03 PM 44.5469 -97.1736 84° East 538 619 37,000  Level Minneapolis Center
Thu 06:08:05 PM 44.5586 -96.9658 85° East 535 616 37,000  Level Minneapolis Center
Thu 06:09:07 PM 44.5736 -96.7147 85° East 536 617 37,000  Level Minneapolis Center
Thu 06:10:09 PM 44.5858 -96.5044 85° East 538 619 37,000  Level Minneapolis Center
Thu 06:11:12 PM 44.5983 -96.2933 85° East 538 619 37,000 -144 Level Minneapolis Center
Thu 06:12:14 PM 44.6092 -96.0817 86° East 539 620 36,700 -581 Descending Minneapolis Center
Thu 06:13:16 PM 44.6208 -95.8725 85° East 535 616 35,800 -1,452 Descending Minneapolis Center
Thu 06:14:18 PM 44.6306 -95.6661 86° East 529 609 33,700 -2,613 Descending Minneapolis Center
Thu 06:15:20 PM 44.6400 -95.4583 86° East 532 612 30,400 -3,387 Descending Minneapolis Center
Thu 06:16:22 PM 44.6522 -95.2103 86° East 532 612 26,700 -3,339 Descending Minneapolis Center
Thu 06:17:24 PM 44.6606 -95.0056 87° East 527 606 23,500 -3,097 Descending Minneapolis Center
Thu 06:18:26 PM 44.6692 -94.8025 87° East 524 603 20,300 -2,806 Descending Minneapolis Center
Thu 06:19:28 PM 44.6761 -94.6303 87° East 505 581 17,700 -2,855 Descending Minneapolis Center
Thu 06:20:30 PM 44.6839 -94.4122 87° East 463 533 14,400 -2,880 Descending Minneapolis Center
Thu 06:21:33 PM 44.6908 -94.2414 87° East 440 506 11,700 -1,632 Descending Minneapolis Center
Thu 06:22:35 PM 44.7094 -94.0789 81° East 424 488 11,000 -339 Descending Minneapolis Center
Thu 06:23:37 PM 44.7456 -93.9208 72° East 424 488 11,000  Level Minneapolis Center
Thu 06:24:39 PM 44.7811 -93.7631 72° East 422 486 11,000  Level Minneapolis Center
Thu 06:25:41 PM 44.8158 -93.6047 73° East 423 487 11,000 -339 Level Minneapolis Center
Thu 06:26:43 PM 44.8517 -93.4411 73° East 352 405 10,300 -1,161 Descending Minneapolis Center
Thu 06:27:45 PM 44.8511 -93.3233 90° East 312 359 8,600 -1,355 Descending Minneapolis Center
Thu 06:28:47 PM 44.7836 -93.2978 165° South 257 296 7,500 -1,258 Descending Minneapolis Center
Thu 06:29:49 PM 44.7183 -93.2933 177° South 243 280 6,000 -1,742 Descending Minneapolis Center
Thu 06:30:51 PM 44.7128 -93.2097 95° East 236 272 3,900 -1,536 Descending Minneapolis Center
Thu 06:31:54 PM 44.7631 -93.2094 360° North 190 219 2,800 -960 Descending Minneapolis Center
Thu 06:32:56 PM 44.8122 -93.2228 349° North 154 177 1,900 -774 Descending Minneapolis Center
Thu 06:33:58 PM 44.8514 -93.2325 350° North 145 167 1,200 -677 Descending Minneapolis Center

Login

Don't have an account? Register now (free) for customized features, flight alerts, and more!